createdAt,value
2018-07-24T00:01:48.862Z,6.10
2018-07-24T00:04:17.253Z,4.78
2018-07-24T00:06:45.652Z,6.45
2018-07-24T00:09:14.073Z,4.97
2018-07-24T00:11:43.340Z,6.60
2018-07-24T00:14:11.735Z,6.07
2018-07-24T00:16:40.892Z,5.80
2018-07-24T00:19:09.496Z,5.57
2018-07-24T00:21:37.876Z,4.72
2018-07-24T00:24:06.358Z,6.43
2018-07-24T00:26:34.720Z,4.62
2018-07-24T00:29:03.116Z,4.37
2018-07-24T00:31:32.499Z,6.18
2018-07-24T00:34:01.199Z,4.75
2018-07-24T00:36:29.550Z,5.03
2018-07-24T00:38:57.949Z,7.22
2018-07-24T00:41:26.320Z,5.57
2018-07-24T00:43:54.726Z,6.20
2018-07-24T00:46:23.892Z,4.90
2018-07-24T00:48:52.490Z,6.05
2018-07-24T00:51:21.248Z,5.20
2018-07-24T00:53:51.102Z,5.32
2018-07-24T00:56:19.591Z,6.80
2018-07-24T00:58:47.950Z,5.87
2018-07-24T01:01:16.308Z,5.97
2018-07-24T01:03:44.649Z,6.43
2018-07-24T01:06:13.019Z,5.75
2018-07-24T01:08:42.239Z,5.20
2018-07-24T01:11:11.400Z,7.40
2018-07-24T01:13:39.712Z,5.47
2018-07-24T01:16:08.088Z,4.75
2018-07-24T01:18:36.418Z,4.53
2018-07-24T01:21:04.770Z,4.72
2018-07-24T01:23:33.260Z,5.80
2018-07-24T01:26:01.830Z,5.10
2018-07-24T01:28:30.218Z,5.20
2018-07-24T01:30:58.684Z,4.62
2018-07-24T01:33:27.080Z,8.05
2018-07-24T01:35:55.428Z,6.07
2018-07-24T01:38:23.830Z,7.00
2018-07-24T01:40:52.248Z,5.12
2018-07-24T01:43:20.642Z,5.12
2018-07-24T01:45:49.008Z,5.18
2018-07-24T01:48:17.406Z,5.83
2018-07-24T01:50:45.850Z,4.97
2018-07-24T01:53:14.226Z,6.50
2018-07-24T01:55:42.662Z,5.50
2018-07-24T01:58:11.761Z,4.87
2018-07-24T02:00:40.084Z,6.27
2018-07-24T02:03:08.532Z,4.80
2018-07-24T02:05:36.926Z,5.33
2018-07-24T02:08:05.270Z,5.80
2018-07-24T02:10:33.650Z,4.50
2018-07-24T02:13:02.049Z,5.10
2018-07-24T02:15:30.430Z,7.12
2018-07-24T02:17:58.928Z,6.00
2018-07-24T02:20:27.307Z,6.30
2018-07-24T02:22:55.694Z,6.60
2018-07-24T02:25:24.187Z,5.50
2018-07-24T02:27:52.613Z,6.87
2018-07-24T02:30:20.951Z,7.50
2018-07-24T02:32:49.332Z,7.67
2018-07-24T02:35:17.701Z,5.93
2018-07-24T02:37:46.191Z,5.85
2018-07-24T02:40:14.579Z,5.40
2018-07-24T02:42:42.917Z,6.47
2018-07-24T02:45:11.283Z,6.37
2018-07-24T02:47:39.681Z,5.70
2018-07-24T02:50:08.195Z,6.23
2018-07-24T02:52:36.607Z,6.13
2018-07-24T02:55:05.040Z,5.70
2018-07-24T02:57:33.476Z,5.53
2018-07-24T03:00:01.981Z,6.50
2018-07-24T03:02:30.346Z,6.07
2018-07-24T03:04:59.473Z,6.63
2018-07-24T03:07:27.823Z,6.20
2018-07-24T03:09:57.110Z,9.27
2018-07-24T03:12:25.499Z,6.20
2018-07-24T03:14:54.623Z,9.87
2018-07-24T03:17:23.684Z,8.33
2018-07-24T03:19:52.821Z,9.57
2018-07-24T03:22:21.279Z,7.53
2018-07-24T03:24:49.647Z,8.37
2018-07-24T03:27:18.022Z,10.32
2018-07-24T03:29:46.431Z,8.97
2018-07-24T03:32:14.876Z,9.87
2018-07-24T03:34:44.057Z,8.67
2018-07-24T03:37:12.443Z,10.33
2018-07-24T03:39:40.903Z,9.23
2018-07-24T03:42:09.250Z,8.60
2018-07-24T03:44:37.601Z,7.77
2018-07-24T03:47:06.813Z,9.47
2018-07-24T03:49:35.959Z,10.00
2018-07-24T03:52:04.349Z,8.47
2018-07-24T03:54:32.697Z,8.90
2018-07-24T03:57:01.119Z,8.80
2018-07-24T03:59:29.540Z,7.90
2018-07-24T04:01:57.917Z,7.47
2018-07-24T04:04:26.295Z,7.00
2018-07-24T04:06:54.696Z,9.10
2018-07-24T04:09:23.069Z,7.57
2018-07-24T04:11:51.411Z,10.43
2018-07-24T04:14:20.573Z,9.27
2018-07-24T04:16:48.910Z,7.63
2018-07-24T04:19:17.325Z,8.87
2018-07-24T04:21:45.683Z,8.53
2018-07-24T04:24:15.049Z,6.37
2018-07-24T04:26:44.259Z,7.93
2018-07-24T04:29:13.361Z,6.47
2018-07-24T04:31:42.450Z,6.93
2018-07-24T04:34:11.588Z,9.20
2018-07-24T04:36:39.949Z,6.37
2018-07-24T04:39:08.321Z,7.33
2018-07-24T04:41:37.421Z,7.83
2018-07-24T04:44:05.801Z,8.33
2018-07-24T04:46:34.245Z,7.93
2018-07-24T04:49:02.651Z,6.87
2018-07-24T04:51:30.989Z,10.17
2018-07-24T04:53:59.354Z,7.80
2018-07-24T04:56:27.685Z,7.00
2018-07-24T04:58:56.120Z,6.83
2018-07-24T05:01:24.957Z,7.10
2018-07-24T05:03:53.389Z,9.83
2018-07-24T05:06:21.855Z,7.87
2018-07-24T05:08:50.241Z,9.03
2018-07-24T05:11:18.723Z,7.93
2018-07-24T05:13:47.131Z,10.07
2018-07-24T05:16:15.513Z,8.13
2018-07-24T05:18:44.489Z,8.50
2018-07-24T05:21:12.815Z,7.97
2018-07-24T05:23:41.222Z,8.30
2018-07-24T05:26:09.578Z,8.87
2018-07-24T05:28:37.960Z,7.82
2018-07-24T05:31:06.317Z,6.37
2018-07-24T05:33:34.769Z,9.35
2018-07-24T05:36:03.092Z,8.73
2018-07-24T05:38:31.450Z,6.90
2018-07-24T05:40:59.884Z,7.93
2018-07-24T05:43:28.277Z,8.70
2018-07-24T05:45:56.711Z,8.40
2018-07-24T05:48:25.118Z,9.10
2018-07-24T05:50:54.510Z,9.65
2018-07-24T05:53:22.969Z,8.00
2018-07-24T05:55:51.371Z,8.05
2018-07-24T05:58:19.799Z,9.50
2018-07-24T06:00:48.176Z,6.37
2018-07-24T06:03:16.572Z,6.25
2018-07-24T06:05:45.137Z,6.82
2018-07-24T06:08:13.606Z,7.47
2018-07-24T06:10:41.967Z,5.97
2018-07-24T06:13:10.423Z,8.52
2018-07-24T06:15:39.711Z,10.77
2018-07-24T06:18:08.186Z,6.87
2018-07-24T06:20:36.640Z,5.95
2018-07-24T06:23:05.790Z,8.68
2018-07-24T06:25:34.172Z,9.60
2018-07-24T06:28:02.520Z,5.57
2018-07-24T06:30:30.916Z,5.32
2018-07-24T06:32:59.240Z,8.43
2018-07-24T06:35:27.729Z,6.50
2018-07-24T06:37:56.074Z,8.88
2018-07-24T06:40:24.418Z,7.50
2018-07-24T06:42:52.799Z,12.15
2018-07-24T06:45:21.169Z,6.57
2018-07-24T06:47:50.269Z,6.03
2018-07-24T06:50:19.390Z,6.37
2018-07-24T06:52:47.770Z,6.78
2018-07-24T06:55:16.285Z,5.90
2018-07-24T06:57:44.731Z,8.15
2018-07-24T07:00:13.801Z,9.40
2018-07-24T07:02:42.997Z,5.55
2018-07-24T07:05:12.239Z,6.28
2018-07-24T07:07:40.543Z,6.70
2018-07-24T07:10:08.936Z,5.35
2018-07-24T07:12:37.270Z,5.10
2018-07-24T07:15:06.047Z,6.57
2018-07-24T07:17:34.438Z,6.05
2018-07-24T07:20:02.845Z,7.45
2018-07-24T07:22:31.302Z,6.50
2018-07-24T07:24:59.636Z,6.40
2018-07-24T07:27:28.055Z,5.62
2018-07-24T07:29:56.392Z,21.23
2018-07-24T07:32:25.525Z,9.95
2018-07-24T07:34:53.909Z,5.20
2018-07-24T07:37:22.251Z,6.55
2018-07-24T07:39:51.373Z,6.15
2018-07-24T07:42:20.383Z,7.62
2018-07-24T07:44:48.735Z,4.55
2018-07-24T07:47:17.951Z,6.95
2018-07-24T07:49:46.333Z,5.28
2018-07-24T07:52:14.697Z,5.70
2018-07-24T07:54:43.041Z,5.40
2018-07-24T07:57:11.517Z,7.22
2018-07-24T07:59:39.842Z,5.32
2018-07-24T08:02:08.166Z,6.37
2018-07-24T08:04:36.650Z,5.57
2018-07-24T08:07:04.954Z,5.80
2018-07-24T08:09:34.068Z,4.15
2018-07-24T08:12:02.409Z,4.32
2018-07-24T08:14:30.936Z,5.32
2018-07-24T08:16:59.267Z,5.07
2018-07-24T08:19:27.825Z,5.00
2018-07-24T08:21:56.178Z,4.32
2018-07-24T08:24:24.580Z,9.90
2018-07-24T08:26:53.067Z,4.43
2018-07-24T08:29:21.380Z,5.03
2018-07-24T08:31:49.765Z,5.37
2018-07-24T08:34:18.192Z,6.00
2018-07-24T08:36:46.514Z,6.75
2018-07-24T08:39:14.868Z,5.12
2018-07-24T08:41:43.178Z,3.95
2018-07-24T08:44:12.332Z,4.25
2018-07-24T08:46:40.671Z,3.03
2018-07-24T08:49:09.855Z,3.53
2018-07-24T08:51:38.146Z,4.93
2018-07-24T08:54:06.670Z,6.12
2018-07-24T08:56:34.964Z,5.40
2018-07-24T08:59:03.384Z,6.50
2018-07-24T09:01:31.916Z,8.50
2018-07-24T09:04:01.075Z,4.87
2018-07-24T09:06:29.418Z,4.55
2018-07-24T09:08:57.746Z,4.00
2018-07-24T09:11:26.095Z,4.10
2018-07-24T09:13:55.196Z,3.58
2018-07-24T09:16:23.573Z,5.25
2018-07-24T09:18:52.668Z,4.75
2018-07-24T09:21:21.008Z,3.62
2018-07-24T09:23:49.380Z,5.03
2018-07-24T09:26:17.726Z,3.50
2018-07-24T09:28:46.092Z,3.62
2018-07-24T09:31:14.500Z,4.00
2018-07-24T09:33:42.879Z,3.45
2018-07-24T09:36:11.226Z,3.35
2018-07-24T09:38:39.590Z,5.43
2018-07-24T09:41:07.936Z,4.60
2018-07-24T09:43:36.292Z,4.70
2018-07-24T09:46:04.668Z,5.35
2018-07-24T09:48:33.030Z,3.30
2018-07-24T09:51:01.402Z,4.62
2018-07-24T09:53:30.645Z,4.00
2018-07-24T09:55:59.024Z,4.12
2018-07-24T09:58:27.382Z,3.95
2018-07-24T10:00:55.745Z,2.85
2018-07-24T10:03:24.156Z,4.90
2018-07-24T10:05:52.518Z,3.72
2018-07-24T10:08:20.892Z,4.10
2018-07-24T10:10:49.212Z,3.60
2018-07-24T10:13:17.738Z,3.40
2018-07-24T10:15:45.976Z,2.80
2018-07-24T10:18:14.330Z,3.92
2018-07-24T10:20:42.689Z,5.03
2018-07-24T10:23:11.035Z,3.50
2018-07-24T10:25:40.181Z,3.70
2018-07-24T10:28:08.584Z,3.03
2018-07-24T10:30:36.920Z,4.37
2018-07-24T10:33:05.280Z,2.90
2018-07-24T10:35:34.568Z,3.72
2018-07-24T10:38:02.896Z,5.30
2018-07-24T10:40:31.253Z,3.72
2018-07-24T10:42:59.779Z,2.80
2018-07-24T10:45:28.868Z,5.82
2018-07-24T10:47:57.990Z,2.72
2018-07-24T10:50:26.787Z,3.67
2018-07-24T10:52:55.308Z,5.40
2018-07-24T10:55:23.844Z,6.03
2018-07-24T10:57:52.237Z,3.58
2018-07-24T11:00:20.566Z,3.37
2018-07-24T11:02:49.046Z,3.95
2018-07-24T11:05:17.451Z,3.30
2018-07-24T11:07:46.519Z,4.62
2018-07-24T11:10:14.904Z,3.42
2018-07-24T11:12:43.276Z,6.62
2018-07-24T11:15:11.654Z,3.28
2018-07-24T11:17:40.026Z,4.03
2018-07-24T11:20:08.402Z,4.68
2018-07-24T11:22:36.915Z,3.47
2018-07-24T11:25:05.992Z,2.97
2018-07-24T11:27:34.326Z,2.42
2018-07-24T11:30:03.432Z,2.83
2018-07-24T11:32:31.823Z,5.37
2018-07-24T11:35:00.159Z,2.67
2018-07-24T11:37:28.589Z,3.70
2018-07-24T11:39:57.297Z,4.40
2018-07-24T11:42:25.615Z,4.25
2018-07-24T11:44:54.290Z,4.10
2018-07-24T11:47:22.661Z,3.35
2018-07-24T11:49:51.285Z,4.37
2018-07-24T11:52:19.627Z,3.92
2018-07-24T11:54:48.083Z,2.85
2018-07-24T11:57:16.547Z,2.70
2018-07-24T11:59:44.904Z,3.70
2018-07-24T12:02:14.471Z,2.37
2018-07-24T12:04:42.961Z,4.57
2018-07-24T12:07:11.293Z,4.20
2018-07-24T12:09:39.667Z,3.50
2018-07-24T12:12:08.036Z,6.62
2018-07-24T12:14:37.555Z,2.83
2018-07-24T12:17:06.050Z,3.42
2018-07-24T12:19:35.001Z,2.50
2018-07-24T12:22:03.310Z,3.00
2018-07-24T12:24:32.413Z,3.58
2018-07-24T12:27:00.794Z,2.45
2018-07-24T12:29:30.099Z,2.45
2018-07-24T12:31:58.459Z,2.65
2018-07-24T12:34:27.048Z,2.42
2018-07-24T12:36:55.732Z,3.65
2018-07-24T12:39:24.208Z,3.95
2018-07-24T12:41:52.557Z,3.47
2018-07-24T12:44:21.073Z,2.80
2018-07-24T12:46:49.565Z,2.67
2018-07-24T12:49:18.089Z,2.67
2018-07-24T12:51:46.413Z,3.33
2018-07-24T12:54:14.786Z,5.12
2018-07-24T12:56:43.126Z,2.75
2018-07-24T12:59:11.918Z,3.03
2018-07-24T13:01:40.243Z,2.35
2018-07-24T13:04:08.683Z,3.37
2018-07-24T13:06:36.929Z,2.53
2018-07-24T13:09:05.277Z,2.25
2018-07-24T13:11:33.863Z,2.60
2018-07-24T13:14:02.478Z,3.87
2018-07-24T13:16:30.847Z,2.70
2018-07-24T13:18:59.205Z,2.97
2018-07-24T13:21:27.602Z,2.95
2018-07-24T13:24:00.259Z,2.20
2018-07-24T13:26:28.646Z,2.83
2018-07-24T13:28:57.068Z,4.82
2018-07-24T13:31:25.702Z,5.03
2018-07-24T13:33:54.189Z,2.90
2018-07-24T13:36:22.972Z,3.28
2018-07-24T13:38:51.572Z,5.32
2018-07-24T13:41:19.964Z,4.62
2018-07-24T13:43:48.317Z,2.35
2018-07-24T13:46:16.790Z,2.47
2018-07-24T13:48:45.526Z,3.70
2018-07-24T13:51:14.481Z,3.30
2018-07-24T13:53:42.910Z,5.22
2018-07-24T13:56:11.239Z,2.72
2018-07-24T13:58:39.607Z,5.50
2018-07-24T14:01:08.090Z,2.22
2018-07-24T14:03:36.447Z,3.60
2018-07-24T14:06:04.824Z,3.00
2018-07-24T14:08:34.644Z,4.57
2018-07-24T14:11:02.984Z,2.30
2018-07-24T14:13:31.370Z,2.20
2018-07-24T14:15:59.812Z,3.75
2018-07-24T14:18:28.206Z,4.05
2018-07-24T14:20:56.534Z,2.72
2018-07-24T14:23:24.891Z,2.70
2018-07-24T14:25:53.230Z,2.58
2018-07-24T14:28:21.620Z,4.85
2018-07-24T14:30:49.958Z,3.87
2018-07-24T14:33:19.423Z,2.50
2018-07-24T14:35:47.809Z,4.03
2018-07-24T14:38:16.510Z,3.12
2018-07-24T14:40:44.852Z,3.45
2018-07-24T14:43:13.521Z,3.15
2018-07-24T14:45:42.949Z,3.25
2018-07-24T14:48:12.203Z,4.68
2018-07-24T14:50:41.551Z,2.55
2018-07-24T14:53:09.880Z,3.37
2018-07-24T14:55:39.137Z,4.90
2018-07-24T14:58:07.581Z,2.45
2018-07-24T15:00:35.977Z,3.65
2018-07-24T15:03:04.315Z,4.57
2018-07-24T15:05:34.015Z,3.55
2018-07-24T15:08:02.341Z,4.05
2018-07-24T15:10:30.715Z,3.10
2018-07-24T15:12:59.095Z,2.90
2018-07-24T15:15:27.539Z,3.60
2018-07-24T15:17:55.868Z,3.90
2018-07-24T15:20:24.645Z,2.50
2018-07-24T15:22:52.985Z,3.17
2018-07-24T15:25:21.370Z,2.45
2018-07-24T15:27:50.495Z,2.90
2018-07-24T15:30:18.844Z,3.55
2018-07-24T15:32:47.973Z,4.07
2018-07-24T15:35:16.364Z,3.00
2018-07-24T15:37:44.693Z,2.70
2018-07-24T15:40:13.793Z,4.45
2018-07-24T15:42:42.922Z,5.55
2018-07-24T15:45:12.036Z,2.67
2018-07-24T15:47:40.408Z,3.67
2018-07-24T15:50:09.489Z,3.65
2018-07-24T15:52:37.885Z,6.85
2018-07-24T15:55:06.264Z,3.45
2018-07-24T15:57:34.633Z,5.55
2018-07-24T16:00:04.614Z,3.12
2018-07-24T16:02:33.782Z,2.92
2018-07-24T16:05:02.864Z,2.97
2018-07-24T16:07:31.195Z,3.10
2018-07-24T16:10:00.308Z,4.18
2018-07-24T16:12:28.722Z,3.08
2018-07-24T16:14:57.505Z,4.10
2018-07-24T16:17:25.856Z,3.37
2018-07-24T16:19:54.573Z,2.60
2018-07-24T16:22:23.058Z,4.57
2018-07-24T16:24:52.338Z,4.00
2018-07-24T16:27:20.701Z,3.87
2018-07-24T16:29:49.905Z,3.22
2018-07-24T16:32:19.139Z,4.40
2018-07-24T16:34:47.488Z,4.28
2018-07-24T16:37:15.906Z,9.70
2018-07-24T16:39:44.260Z,5.30
2018-07-24T16:42:12.625Z,4.30
2018-07-24T16:44:40.998Z,3.83
2018-07-24T16:47:09.313Z,4.87
2018-07-24T16:49:37.780Z,3.78
2018-07-24T16:52:06.134Z,8.93
2018-07-24T16:54:35.468Z,5.10
2018-07-24T16:57:03.831Z,5.15
2018-07-24T16:59:32.419Z,2.22
2018-07-24T17:02:00.748Z,2.30
2018-07-24T17:04:29.175Z,5.90
2018-07-24T17:06:57.503Z,4.03
2018-07-24T17:09:25.841Z,4.40
2018-07-24T17:11:54.197Z,3.60
2018-07-24T17:14:22.586Z,2.70
2018-07-24T17:16:50.962Z,4.60
2018-07-24T17:19:19.322Z,2.05
2018-07-24T17:21:48.433Z,2.28
2018-07-24T17:24:16.774Z,3.65
2018-07-24T17:26:45.138Z,2.60
2018-07-24T17:29:13.495Z,4.28
2018-07-24T17:31:41.862Z,4.22
2018-07-24T17:34:10.197Z,3.75
2018-07-24T17:36:39.289Z,3.03
2018-07-24T17:39:08.461Z,3.10
2018-07-24T17:41:36.832Z,3.08
2018-07-24T17:44:05.195Z,3.37
2018-07-24T17:46:33.567Z,3.37
2018-07-24T17:49:01.950Z,3.87
2018-07-24T17:51:30.325Z,3.12
2018-07-24T17:53:58.686Z,3.15
2018-07-24T17:56:27.010Z,2.67
2018-07-24T17:58:55.463Z,3.40
2018-07-24T18:01:23.957Z,2.95
2018-07-24T18:03:53.053Z,3.12
2018-07-24T18:06:21.371Z,3.53
2018-07-24T18:08:50.494Z,3.00
2018-07-24T18:11:18.897Z,3.33
2018-07-24T18:13:47.695Z,4.53
2018-07-24T18:16:16.092Z,4.97
2018-07-24T18:18:44.442Z,3.03
2018-07-24T18:21:12.861Z,3.10
2018-07-24T18:23:41.211Z,5.47
2018-07-24T18:26:09.589Z,2.78
2018-07-24T18:28:39.121Z,5.10
2018-07-24T18:31:07.567Z,10.20
2018-07-24T18:33:35.983Z,5.25
2018-07-24T18:36:04.430Z,3.37
2018-07-24T18:38:32.950Z,4.47
2018-07-24T18:41:01.437Z,3.05
2018-07-24T18:43:29.905Z,3.97
2018-07-24T18:45:58.640Z,5.57
2018-07-24T18:48:26.995Z,3.60
2018-07-24T18:50:55.656Z,2.65
2018-07-24T18:53:24.092Z,3.53
2018-07-24T18:55:52.383Z,2.25
2018-07-24T18:58:20.783Z,2.92
2018-07-24T19:00:49.288Z,3.25
2018-07-24T19:03:17.638Z,5.90
2018-07-24T19:05:46.086Z,3.60
2018-07-24T19:08:15.254Z,2.92
2018-07-24T19:10:43.603Z,3.75
2018-07-24T19:13:11.969Z,4.37
2018-07-24T19:15:40.332Z,5.37
2018-07-24T19:18:09.489Z,4.40
2018-07-24T19:20:37.786Z,4.37
2018-07-24T19:23:06.149Z,4.90
2018-07-24T19:25:34.570Z,5.10
2018-07-24T19:28:04.180Z,4.22
2018-07-24T19:30:32.654Z,4.40
2018-07-24T19:33:01.114Z,4.55
2018-07-24T19:35:30.236Z,4.65
2018-07-24T19:37:58.686Z,5.12
2018-07-24T19:40:27.017Z,8.15
2018-07-24T19:42:55.439Z,7.65
2018-07-24T19:45:24.329Z,5.57
2018-07-24T19:47:52.721Z,3.92
2018-07-24T19:50:21.568Z,5.03
2018-07-24T19:52:49.943Z,32.00
2018-07-24T19:55:18.728Z,31.62
2018-07-24T19:57:47.170Z,21.62
2018-07-24T20:00:15.654Z,11.38
2018-07-24T20:02:44.147Z,7.07
2018-07-24T20:05:12.653Z,5.75
2018-07-24T20:07:41.128Z,5.62
2018-07-24T20:10:09.657Z,4.80
2018-07-24T20:12:38.054Z,8.20
2018-07-24T20:15:06.544Z,16.80
2018-07-24T20:17:34.900Z,12.05
2018-07-24T20:20:05.085Z,5.22
2018-07-24T20:22:33.585Z,3.85
2018-07-24T20:25:02.250Z,6.18
2018-07-24T20:27:30.732Z,4.35
2018-07-24T20:29:59.254Z,5.25
2018-07-24T20:32:28.625Z,3.12
2018-07-24T20:34:57.168Z,3.10
2018-07-24T20:37:25.511Z,5.40
2018-07-24T20:39:54.171Z,5.15
2018-07-24T20:42:22.605Z,3.30
2018-07-24T20:44:51.158Z,3.97
2018-07-24T20:47:19.509Z,4.37
2018-07-24T20:49:47.877Z,4.65
2018-07-24T20:52:16.938Z,4.18
2018-07-24T20:54:45.292Z,5.12
2018-07-24T20:57:14.138Z,4.05
2018-07-24T20:59:42.491Z,3.95
2018-07-24T21:02:11.060Z,4.43
2018-07-24T21:04:39.692Z,5.15
2018-07-24T21:07:08.075Z,4.85
2018-07-24T21:09:36.524Z,3.45
2018-07-24T21:12:05.619Z,3.70
2018-07-24T21:14:33.989Z,4.62
2018-07-24T21:17:02.497Z,3.03
2018-07-24T21:19:30.845Z,3.42
2018-07-24T21:22:00.075Z,5.78
2018-07-24T21:24:28.431Z,3.62
2018-07-24T21:26:57.526Z,6.25
2018-07-24T21:29:25.944Z,4.95
2018-07-24T21:31:54.383Z,3.53
2018-07-24T21:34:22.731Z,3.83
2018-07-24T21:36:51.128Z,3.30
2018-07-24T21:39:20.240Z,4.65
2018-07-24T21:41:49.363Z,4.25
2018-07-24T21:44:17.756Z,3.80
2018-07-24T21:46:46.192Z,4.62
2018-07-24T21:49:15.381Z,5.00
2018-07-24T21:51:43.898Z,12.55
2018-07-24T21:54:13.565Z,25.23
2018-07-24T21:56:41.921Z,9.20
2018-07-24T21:59:10.258Z,5.47
2018-07-24T22:01:38.675Z,3.67
2018-07-24T22:04:07.284Z,3.75
2018-07-24T22:06:35.829Z,3.42
2018-07-24T22:09:04.261Z,3.50
2018-07-24T22:11:32.578Z,3.40
2018-07-24T22:14:00.960Z,2.95
2018-07-24T22:16:29.330Z,5.40
2018-07-24T22:18:57.740Z,4.80
2018-07-24T22:21:26.111Z,6.65
2018-07-24T22:23:54.544Z,3.28
2018-07-24T22:26:23.453Z,2.85
2018-07-24T22:28:51.802Z,5.00
2018-07-24T22:31:20.170Z,5.78
2018-07-24T22:33:48.652Z,5.65
2018-07-24T22:36:17.148Z,8.15
2018-07-24T22:38:46.258Z,6.40
2018-07-24T22:41:14.702Z,5.05
2018-07-24T22:43:43.180Z,4.40
2018-07-24T22:46:13.214Z,3.37
2018-07-24T22:48:42.500Z,4.32
2018-07-24T22:51:11.085Z,6.65
2018-07-24T22:53:39.664Z,5.30
2018-07-24T22:56:08.814Z,4.57
2018-07-24T22:58:38.208Z,3.62
2018-07-24T23:01:07.141Z,6.05
2018-07-24T23:03:35.554Z,6.60
2018-07-24T23:06:03.927Z,4.30
2018-07-24T23:08:32.399Z,4.28
2018-07-24T23:11:00.861Z,4.75
2018-07-24T23:13:29.368Z,3.58
2018-07-24T23:15:57.839Z,3.90
2018-07-24T23:18:26.307Z,3.62
2018-07-24T23:20:55.001Z,5.57
2018-07-24T23:23:23.534Z,8.45
2018-07-24T23:25:52.028Z,3.67
2018-07-24T23:28:21.353Z,5.43
2018-07-24T23:30:49.844Z,8.30
2018-07-24T23:33:18.241Z,4.82
2018-07-24T23:35:46.696Z,5.32
2018-07-24T23:38:16.099Z,3.33
2018-07-24T23:40:44.664Z,4.50
2018-07-24T23:43:13.530Z,5.20
2018-07-24T23:45:41.923Z,7.15
2018-07-24T23:48:10.431Z,5.72
2018-07-24T23:50:38.815Z,3.78
2018-07-24T23:53:07.522Z,4.53
2018-07-24T23:55:36.091Z,5.25
2018-07-24T23:58:04.704Z,4.85
